Time;durP1;ratioP1;P1;durP2;ratioP2;P2;SDS_P1;SDS_P2;PMS_P1;PMS_P2;Temp;Humidity;BMP_temperature;BMP_pressure;BME280_temperature;BME280_humidity;BME280_pressure;Samples;Min_cycle;Max_cycle;Signal;HPM_P1;HPM_P2
2022/05/14 00:01:10;;;;;;;9.05;4.78;;;;;;;10.48;88.94;101907.59;5260620;28;20028;-64
2022/05/14 00:03:42;;;;;;;10.25;4.25;;;;;;;10.49;88.98;101906.66;5257741;28;20052;-64
2022/05/14 00:06:17;;;;;;;10.10;4.15;;;;;;;10.43;89.95;101904.31;5256054;28;20063;-64
2022/05/14 00:08:49;;;;;;;8.38;4.30;;;;;;;10.43;89.53;101908.81;5262610;28;20557;-64
2022/05/14 00:14:11;;;;;;;11.65;4.35;;;;;;;10.31;88.97;101905.91;5254790;28;20055;-64
2022/05/14 00:16:42;;;;;;;13.52;4.63;;;;;;;10.23;89.04;101897.47;5260160;28;20611;-63
2022/05/14 00:19:14;;;;;;;9.85;4.55;;;;;;;10.17;87.52;101905.84;5261905;28;20618;-64
2022/05/14 00:21:45;;;;;;;12.00;4.55;;;;;;;10.23;92.03;101901.94;5260844;28;20025;-64
2022/05/14 00:24:17;;;;;;;8.80;4.72;;;;;;;10.11;89.88;101901.72;5259855;28;20086;-64
2022/05/14 00:26:48;;;;;;;9.98;4.03;;;;;;;10.05;88.41;101896.75;5261603;28;20070;-64
2022/05/14 00:29:19;;;;;;;11.30;4.47;;;;;;;10.10;90.20;101891.13;5262825;28;20037;-63
2022/05/14 00:31:50;;;;;;;12.15;5.10;;;;;;;9.98;90.37;101898.03;5260837;28;20047;-63
2022/05/14 00:34:22;;;;;;;10.50;4.78;;;;;;;10.01;91.28;101887.19;5263269;28;20175;-63
2022/05/14 00:36:53;;;;;;;16.80;5.72;;;;;;;10.08;91.93;101885.03;5260366;28;20048;-64
2022/05/14 00:39:24;;;;;;;14.70;5.43;;;;;;;10.08;92.79;101882.34;5260988;28;20040;-63
2022/05/14 00:41:55;;;;;;;13.18;5.30;;;;;;;10.05;91.94;101890.53;5258422;28;20044;-63
2022/05/14 00:44:27;;;;;;;11.57;5.40;;;;;;;9.98;91.29;101880.22;5257742;28;20136;-63
2022/05/14 00:47:01;;;;;;;11.60;5.38;;;;;;;9.88;91.48;101881.69;5258888;28;20443;-64
2022/05/14 00:49:34;;;;;;;9.95;5.25;;;;;;;9.83;90.57;101889.09;5260162;28;20040;-63
2022/05/14 00:52:13;;;;;;;11.05;5.13;;;;;;;9.88;92.09;101876.38;5262040;28;20067;-64
2022/05/14 00:54:52;;;;;;;12.50;5.05;;;;;;;9.79;92.23;101887.53;5260822;28;20078;-63
2022/05/14 00:57:27;;;;;;;14.88;6.10;;;;;;;9.71;91.41;101884.47;5268719;28;20467;-65
2022/05/14 01:00:02;;;;;;;11.68;5.45;;;;;;;9.74;92.97;101884.28;5263189;28;20028;-63
2022/05/14 01:02:33;;;;;;;12.18;5.15;;;;;;;9.67;90.87;101888.25;5254902;28;20048;-63
2022/05/14 01:05:06;;;;;;;14.52;5.65;;;;;;;9.67;91.45;101886.44;5264074;28;20032;-63
2022/05/14 01:07:38;;;;;;;12.05;4.97;;;;;;;9.52;91.35;101888.13;5267585;28;20032;-64
2022/05/14 01:10:12;;;;;;;11.32;4.97;;;;;;;9.63;92.03;101879.56;5270259;28;20047;-63
2022/05/14 01:12:49;;;;;;;11.73;5.13;;;;;;;9.70;92.01;101890.72;5269899;28;20403;-64
2022/05/14 01:15:24;;;;;;;11.00;5.35;;;;;;;9.59;92.84;101886.88;5267470;28;20154;-64
2022/05/14 01:17:55;;;;;;;11.45;5.15;;;;;;;9.66;92.81;101881.19;5269310;28;20593;-63
2022/05/14 01:20:26;;;;;;;13.70;5.15;;;;;;;9.48;90.71;101883.94;5273309;28;20027;-64
2022/05/14 01:23:05;;;;;;;10.02;5.00;;;;;;;9.43;90.20;101880.66;5268749;28;20600;-63
2022/05/14 01:28:32;;;;;;;9.68;4.43;;;;;;;9.37;90.77;101876.53;5266360;28;20036;-63
2022/05/14 01:31:03;;;;;;;10.75;4.78;;;;;;;9.32;91.38;101878.59;5275338;28;20379;-63
2022/05/14 01:33:36;;;;;;;9.88;4.63;;;;;;;9.44;92.36;101871.72;5270526;28;20029;-63
2022/05/14 01:36:09;;;;;;;13.77;4.88;;;;;;;9.33;92.24;101879.44;5267168;28;20375;-64
2022/05/14 01:38:40;;;;;;;9.02;4.68;;;;;;;9.28;92.22;101876.16;5270447;28;20047;-64
2022/05/14 01:41:12;;;;;;;7.80;4.57;;;;;;;9.34;92.85;101873.16;5278055;28;20280;-63
2022/05/14 01:43:43;;;;;;;10.40;4.10;;;;;;;9.27;91.94;101882.44;5274720;28;20024;-63
2022/05/14 01:46:15;;;;;;;8.50;3.67;;;;;;;9.19;90.75;101882.88;5272828;28;20438;-63
2022/05/14 01:48:46;;;;;;;9.45;3.78;;;;;;;9.13;90.28;101876.06;5270479;28;20131;-64
2022/05/14 01:51:18;;;;;;;9.75;3.75;;;;;;;9.16;90.10;101881.22;5271209;28;20031;-64
2022/05/14 01:53:51;;;;;;;9.80;3.65;;;;;;;9.10;89.59;101886.88;5264306;28;20032;-63
2022/05/14 01:56:22;;;;;;;7.57;3.50;;;;;;;9.13;90.51;101899.19;5270863;28;20058;-63
2022/05/14 01:58:54;;;;;;;7.50;3.15;;;;;;;9.05;89.16;101891.59;5270410;28;20032;-63
2022/05/14 02:01:34;;;;;;;10.70;3.40;;;;;;;9.03;89.52;101898.78;5272045;28;20067;-64
2022/05/14 02:04:12;;;;;;;8.60;3.28;;;;;;;9.02;89.46;101894.41;5269757;28;20264;-64
2022/05/14 02:06:44;;;;;;;9.15;3.28;;;;;;;9.06;91.64;101887.13;5280804;28;20476;-63
2022/05/14 02:09:15;;;;;;;7.43;3.40;;;;;;;9.10;91.54;101889.53;5266754;28;20048;-64
2022/05/14 02:11:46;;;;;;;9.48;3.90;;;;;;;9.03;91.13;101890.78;5269207;28;20119;-64
2022/05/14 02:14:18;;;;;;;9.60;3.33;;;;;;;9.07;91.06;101895.03;5279695;28;20035;-63
2022/05/14 02:16:49;;;;;;;8.23;3.95;;;;;;;8.95;89.32;101895.69;5275567;28;20482;-64
2022/05/14 02:19:20;;;;;;;13.07;3.47;;;;;;;8.94;89.98;101892.16;5272098;28;20039;-63
2022/05/14 02:21:52;;;;;;;7.45;3.30;;;;;;;9.00;89.76;101888.31;5272722;28;20138;-63
2022/05/14 02:24:23;;;;;;;7.15;3.45;;;;;;;9.05;89.44;101890.72;5275965;28;20066;-62
2022/05/14 02:26:54;;;;;;;12.52;3.85;;;;;;;8.98;91.88;101887.53;5265211;28;20074;-63
2022/05/14 02:29:26;;;;;;;8.90;3.42;;;;;;;8.92;91.99;101895.84;5274629;28;20025;-63
2022/05/14 02:31:57;;;;;;;10.15;3.63;;;;;;;8.83;90.02;101903.34;5262064;28;20544;-63
2022/05/14 02:34:28;;;;;;;8.05;4.07;;;;;;;8.96;91.55;101895.59;5259887;28;20047;-63
2022/05/14 02:36:59;;;;;;;11.80;4.38;;;;;;;8.95;91.93;101898.34;5263402;28;20025;-63
2022/05/14 02:39:30;;;;;;;9.95;3.40;;;;;;;8.79;89.55;101893.81;5260677;28;20032;-64
2022/05/14 02:42:03;;;;;;;7.75;3.80;;;;;;;8.81;91.90;101905.25;5272318;28;20044;-64
2022/05/14 02:44:34;;;;;;;14.88;4.57;;;;;;;8.76;91.32;101901.97;5267902;28;20025;-63
2022/05/14 02:47:05;;;;;;;10.50;4.32;;;;;;;8.68;90.16;101904.16;5274691;28;20274;-63
2022/05/14 02:49:36;;;;;;;9.50;3.90;;;;;;;8.63;90.55;101891.09;5271232;28;20028;-63
2022/05/14 02:52:08;;;;;;;9.15;3.97;;;;;;;8.68;91.25;101895.31;5274723;28;20047;-63
2022/05/14 02:54:39;;;;;;;8.38;3.70;;;;;;;8.56;90.58;101902.13;5265050;28;20597;-63
2022/05/14 02:57:10;;;;;;;10.73;3.65;;;;;;;8.53;90.67;101900.47;5266596;28;20029;-63
2022/05/14 02:59:42;;;;;;;8.48;4.50;;;;;;;8.53;91.04;101904.94;5279441;28;20028;-63
2022/05/14 03:02:14;;;;;;;10.68;3.80;;;;;;;8.61;90.78;101903.63;5270841;28;20123;-63
2022/05/14 03:04:48;;;;;;;9.30;3.63;;;;;;;8.47;90.83;101895.47;5275429;28;20032;-63
2022/05/14 03:07:19;;;;;;;6.93;3.58;;;;;;;8.57;90.95;101906.50;5273533;28;20398;-64
2022/05/14 03:09:53;;;;;;;10.30;3.63;;;;;;;8.55;92.25;101903.06;5268393;28;20048;-63
2022/05/14 03:12:26;;;;;;;9.55;3.75;;;;;;;8.57;92.84;101906.50;5271253;28;20047;-63
2022/05/14 03:14:57;;;;;;;10.45;3.72;;;;;;;8.40;91.60;101905.53;5274401;28;20024;-65
2022/05/14 03:17:29;;;;;;;7.35;3.67;;;;;;;8.37;90.94;101900.38;5267706;28;20052;-63
2022/05/14 03:20:06;;;;;;;6.57;3.22;;;;;;;8.36;90.57;101895.13;5270833;28;20098;-63
2022/05/14 03:22:39;;;;;;;9.10;3.75;;;;;;;8.44;92.59;101891.19;5271326;28;20123;-63
2022/05/14 03:25:10;;;;;;;9.07;3.55;;;;;;;8.44;93.57;101895.66;5271381;28;20039;-64
2022/05/14 03:27:41;;;;;;;9.73;4.43;;;;;;;8.32;92.10;101896.22;5265113;28;20024;-63
2022/05/14 03:30:13;;;;;;;11.00;3.47;;;;;;;8.37;92.49;101897.72;5273191;28;20450;-64
2022/05/14 03:32:44;;;;;;;9.93;3.78;;;;;;;8.36;93.10;101901.31;5271368;28;20986;-64
2022/05/14 03:35:15;;;;;;;8.98;4.28;;;;;;;8.38;94.32;101898.56;5275319;28;20042;-63
2022/05/14 03:37:47;;;;;;;10.07;4.57;;;;;;;8.30;93.32;101896.28;5271126;28;20119;-63
2022/05/14 03:40:18;;;;;;;7.07;3.88;;;;;;;8.21;92.50;101894.09;5269150;28;20024;-63
2022/05/14 03:42:49;;;;;;;11.98;4.40;;;;;;;8.23;92.85;101898.41;5269567;28;20097;-63
2022/05/14 03:45:21;;;;;;;12.27;4.10;;;;;;;8.25;93.53;101893.88;5274915;28;20134;-63
2022/05/14 03:47:52;;;;;;;9.27;4.60;;;;;;;8.27;93.85;101904.44;5270331;28;20036;-63
2022/05/14 03:50:23;;;;;;;12.05;4.07;;;;;;;8.13;93.69;101905.13;5271411;28;20470;-63
2022/05/14 03:52:55;;;;;;;9.35;4.15;;;;;;;8.30;94.06;101898.94;5268930;28;20040;-63
2022/05/14 03:55:26;;;;;;;9.70;4.07;;;;;;;8.10;92.44;101896.44;5268435;28;20064;-63
2022/05/14 03:57:57;;;;;;;8.80;4.05;;;;;;;8.16;93.80;101907.59;5255285;28;20753;-63
2022/05/14 04:00:29;;;;;;;10.23;4.03;;;;;;;8.15;93.97;101897.94;5261120;28;20434;-63
2022/05/14 04:03:00;;;;;;;9.88;3.80;;;;;;;8.20;94.65;101900.34;5258948;28;20483;-63
2022/05/14 04:05:31;;;;;;;14.20;4.70;;;;;;;8.18;94.72;101905.75;5259824;28;20044;-63
2022/05/14 04:08:02;;;;;;;13.50;4.40;;;;;;;8.11;94.73;101900.78;5260273;28;21252;-63
2022/05/14 04:10:34;;;;;;;10.30;4.45;;;;;;;8.25;95.38;101906.31;5265624;28;20035;-63
2022/05/14 04:13:06;;;;;;;11.57;4.50;;;;;;;8.23;96.27;101908.19;5263032;28;20043;-63
2022/05/14 04:15:37;;;;;;;11.32;4.30;;;;;;;8.11;94.45;101908.78;5261573;28;21326;-63
2022/05/14 04:18:09;;;;;;;12.52;4.88;;;;;;;8.07;94.47;101912.53;5258360;28;20395;-63
2022/05/14 04:20:41;;;;;;;10.63;4.80;;;;;;;8.02;94.50;101910.94;5259630;28;20024;-64
2022/05/14 04:23:12;;;;;;;11.50;4.60;;;;;;;8.04;94.97;101917.06;5261843;28;20040;-63
2022/05/14 04:25:43;;;;;;;14.82;5.00;;;;;;;8.15;95.55;101913.00;5260105;28;20036;-64
2022/05/14 04:28:14;;;;;;;10.13;4.93;;;;;;;8.12;95.76;101910.50;5259128;28;20078;-63
2022/05/14 04:30:46;;;;;;;11.73;4.70;;;;;;;8.05;95.04;101921.44;5259205;28;20043;-63
2022/05/14 04:33:19;;;;;;;9.25;4.28;;;;;;;8.05;94.64;101909.94;5263513;28;20791;-63
2022/05/14 04:35:50;;;;;;;11.48;4.68;;;;;;;8.10;94.96;101913.22;5263904;28;20553;-63
2022/05/14 04:38:21;;;;;;;9.07;4.70;;;;;;;8.13;95.35;101904.25;5261645;28;20031;-63
2022/05/14 04:40:53;;;;;;;11.95;4.50;;;;;;;8.09;94.92;101915.97;5266651;28;20063;-63
2022/05/14 04:43:24;;;;;;;12.07;4.90;;;;;;;8.16;96.01;101914.72;5271762;28;20032;-64
2022/05/14 04:45:55;;;;;;;10.43;4.72;;;;;;;8.32;97.16;101915.72;5271928;28;20044;-64
2022/05/14 04:48:27;;;;;;;11.55;4.80;;;;;;;8.28;96.33;101921.25;5277073;28;20597;-63
2022/05/14 04:50:58;;;;;;;11.90;4.75;;;;;;;8.31;96.86;101929.06;5274502;28;20482;-63
2022/05/14 04:53:30;;;;;;;9.60;4.85;;;;;;;8.31;96.54;101927.28;5274860;28;20032;-63
2022/05/14 04:56:01;;;;;;;10.95;5.00;;;;;;;8.24;95.43;101931.16;5276172;28;20132;-63
2022/05/14 04:58:33;;;;;;;9.95;4.80;;;;;;;8.44;97.66;101928.41;5260507;28;20040;-63
2022/05/14 05:01:04;;;;;;;14.40;5.40;;;;;;;8.32;96.14;101920.16;5268674;28;20043;-63
2022/05/14 05:03:36;;;;;;;11.90;5.10;;;;;;;8.33;95.78;101914.75;5283833;28;20081;-63
2022/05/14 05:06:08;;;;;;;11.80;5.57;;;;;;;8.33;95.85;101925.38;5266069;28;20810;-63
2022/05/14 05:08:39;;;;;;;12.23;5.90;;;;;;;8.36;95.63;101927.91;5258711;28;20063;-63
2022/05/14 05:11:11;;;;;;;14.25;5.60;;;;;;;8.38;95.33;101926.03;5268831;28;20032;-63
2022/05/14 05:13:42;;;;;;;13.23;5.35;;;;;;;8.40;95.17;101929.47;5256662;28;20382;-63
2022/05/14 05:16:14;;;;;;;11.43;5.47;;;;;;;8.43;96.13;101926.69;5263703;28;20067;-63
2022/05/14 05:18:45;;;;;;;15.35;6.03;;;;;;;8.52;96.39;101932.50;5269280;28;20613;-63
2022/05/14 05:21:16;;;;;;;14.20;5.88;;;;;;;8.57;96.62;101933.09;5276198;28;20063;-63
2022/05/14 05:23:48;;;;;;;13.23;6.50;;;;;;;8.62;96.42;101936.41;5258644;28;20032;-62
2022/05/14 05:26:19;;;;;;;10.60;5.63;;;;;;;8.68;96.10;101938.75;5257409;28;20044;-63
2022/05/14 05:28:50;;;;;;;11.57;6.18;;;;;;;8.68;96.61;101940.53;5271307;28;20024;-63
2022/05/14 05:31:21;;;;;;;16.48;6.82;;;;;;;8.73;96.50;101938.53;5276774;28;20123;-63
2022/05/14 05:33:53;;;;;;;18.48;6.20;;;;;;;8.76;96.38;101941.91;5271501;28;20139;-63
2022/05/14 05:36:24;;;;;;;17.92;6.97;;;;;;;8.82;96.70;101944.22;5273909;28;20232;-63
2022/05/14 05:38:56;;;;;;;15.05;6.32;;;;;;;8.87;96.71;101951.13;5275061;28;20036;-63
2022/05/14 05:41:28;;;;;;;13.63;7.05;;;;;;;8.92;96.98;101949.94;5274809;28;20024;-63
2022/05/14 05:44:00;;;;;;;13.25;6.82;;;;;;;9.00;97.03;101954.88;5272967;28;20489;-63
2022/05/14 05:46:32;;;;;;;16.58;7.18;;;;;;;9.05;96.84;101955.50;5275245;28;20029;-63
2022/05/14 05:49:05;;;;;;;14.93;8.00;;;;;;;9.09;96.61;101959.72;5275099;28;20036;-63
2022/05/14 05:51:36;;;;;;;15.07;8.13;;;;;;;9.17;96.74;101953.97;5275130;28;20044;-63
2022/05/14 05:56:59;;;;;;;15.43;8.10;;;;;;;9.34;97.21;101961.94;5273181;28;20032;-63
2022/05/14 05:59:32;;;;;;;18.63;8.18;;;;;;;9.37;97.68;101947.59;5273629;28;20465;-62
2022/05/14 06:02:04;;;;;;;17.92;7.63;;;;;;;9.41;97.35;101955.34;5276091;28;20292;-63
2022/05/14 06:04:35;;;;;;;14.07;7.63;;;;;;;9.55;97.99;101959.91;5273622;28;20093;-63
2022/05/14 06:07:07;;;;;;;19.90;9.07;;;;;;;9.61;97.86;101970.25;5274317;28;20020;-63
2022/05/14 06:09:38;;;;;;;16.92;9.18;;;;;;;9.68;97.63;101959.25;5273982;28;20475;-63
2022/05/14 06:12:09;;;;;;;18.10;8.25;;;;;;;9.75;97.99;101956.16;5274207;28;20471;-63
2022/05/14 06:14:43;;;;;;;18.60;9.38;;;;;;;9.85;97.76;101951.16;5275895;28;20499;-63
2022/05/14 06:17:14;;;;;;;21.10;9.73;;;;;;;9.92;97.53;101968.53;5274767;28;20033;-63
2022/05/14 06:19:45;;;;;;;19.13;9.77;;;;;;;10.00;97.47;101965.44;5274216;28;20455;-63
2022/05/14 06:22:17;;;;;;;20.33;9.65;;;;;;;10.08;97.18;101970.34;5275441;28;20438;-63
2022/05/14 06:24:48;;;;;;;22.27;9.95;;;;;;;10.15;97.20;101969.91;5275829;28;20165;-63
2022/05/14 06:27:20;;;;;;;20.83;9.93;;;;;;;10.26;96.88;101966.66;5278456;28;20112;-63
2022/05/14 06:29:51;;;;;;;18.55;9.13;;;;;;;10.31;96.48;101966.41;5267414;28;20020;-63
2022/05/14 06:32:22;;;;;;;19.80;9.82;;;;;;;10.46;96.61;101967.34;5276228;28;20111;-63
2022/05/14 06:34:53;;;;;;;19.67;9.90;;;;;;;10.53;96.98;101969.56;5279081;28;20469;-63
2022/05/14 06:37:25;;;;;;;23.83;10.80;;;;;;;10.69;96.50;101982.00;5278476;28;20062;-63
2022/05/14 06:39:56;;;;;;;25.40;10.85;;;;;;;10.82;96.76;101985.66;5277327;28;20032;-63
2022/05/14 06:42:27;;;;;;;19.10;9.93;;;;;;;10.92;96.18;101994.00;5277250;28;20063;-63
2022/05/14 06:44:59;;;;;;;26.08;12.20;;;;;;;11.03;96.13;101985.34;5277079;28;20020;-63
2022/05/14 06:47:30;;;;;;;23.33;10.30;;;;;;;11.15;95.38;101988.13;5276986;28;20028;-63
2022/05/14 06:50:03;;;;;;;24.73;11.65;;;;;;;11.23;95.13;101993.00;5279247;28;20115;-63
2022/05/14 06:52:35;;;;;;;20.35;10.50;;;;;;;11.30;94.84;101994.34;5276623;28;20113;-63
2022/05/14 06:55:09;;;;;;;23.50;9.90;;;;;;;11.43;93.92;101994.47;5279171;28;20497;-63
2022/05/14 06:57:41;;;;;;;27.63;10.80;;;;;;;11.54;93.68;101989.31;5276497;28;20059;-63
2022/05/14 07:00:13;;;;;;;26.70;10.85;;;;;;;11.67;92.82;101991.22;5271387;28;20041;-63
2022/05/14 07:02:46;;;;;;;21.83;10.63;;;;;;;11.76;92.54;101988.81;5275576;28;20154;-63
2022/05/14 07:08:08;;;;;;;23.00;10.23;;;;;;;11.96;92.36;101984.03;5278714;28;20040;-63
2022/05/14 07:10:40;;;;;;;22.17;10.85;;;;;;;12.12;91.51;101986.59;5266832;28;20506;-63
2022/05/14 07:13:11;;;;;;;26.70;11.20;;;;;;;12.22;91.14;101990.38;5276467;28;20482;-63
2022/05/14 07:15:42;;;;;;;23.63;10.80;;;;;;;12.34;90.88;101989.56;5278215;28;20074;-63
2022/05/14 07:18:13;;;;;;;20.23;10.55;;;;;;;12.40;89.85;101996.34;5275684;28;20045;-63
2022/05/14 07:20:46;;;;;;;20.15;9.77;;;;;;;12.49;90.55;101998.41;5273719;28;20053;-63
2022/05/14 07:23:17;;;;;;;20.20;11.00;;;;;;;12.70;88.93;101996.13;5272713;28;20035;-63
2022/05/14 07:25:48;;;;;;;22.60;10.65;;;;;;;12.68;87.79;101997.22;5278585;28;20111;-63
2022/05/14 07:28:19;;;;;;;21.42;11.63;;;;;;;12.74;89.12;101992.28;5277977;28;20040;-63
2022/05/14 07:30:51;;;;;;;21.60;11.40;;;;;;;12.90;88.50;101993.91;5278328;28;20029;-63
2022/05/14 07:33:22;;;;;;;17.17;9.98;;;;;;;13.03;88.29;101993.94;5276896;28;20026;-63
2022/05/14 07:35:57;;;;;;;20.70;11.32;;;;;;;13.07;88.55;101992.78;5276011;28;20454;-63
2022/05/14 07:38:29;;;;;;;24.02;11.43;;;;;;;13.26;87.06;101998.56;5278008;28;20085;-63
2022/05/14 07:41:02;;;;;;;22.70;11.05;;;;;;;13.37;87.21;101994.34;5273660;28;20476;-63
2022/05/14 07:43:36;;;;;;;26.45;10.82;;;;;;;13.58;86.64;101983.94;5276015;28;20024;-63
2022/05/14 07:46:14;;;;;;;22.25;10.75;;;;;;;13.69;85.99;101990.22;5276409;28;20135;-63
2022/05/14 07:48:47;;;;;;;23.35;11.13;;;;;;;13.76;85.47;101981.75;5277007;28;20036;-64
2022/05/14 07:51:19;;;;;;;21.30;10.30;;;;;;;13.84;85.08;101987.41;5275912;28;20127;-63
2022/05/14 07:53:50;;;;;;;22.75;10.57;;;;;;;13.87;85.60;101998.78;5277223;28;20599;-63
2022/05/14 07:56:21;;;;;;;22.27;10.77;;;;;;;14.06;84.45;101992.94;5277403;28;20063;-63
2022/05/14 07:58:53;;;;;;;20.08;10.60;;;;;;;14.26;84.59;101999.50;5275799;28;20029;-63
2022/05/14 08:01:24;;;;;;;20.45;10.55;;;;;;;14.30;82.56;101997.47;5274433;28;20036;-63
2022/05/14 08:03:56;;;;;;;25.67;12.05;;;;;;;14.38;83.29;102002.25;5275173;28;20509;-64
2022/05/14 08:06:27;;;;;;;22.05;10.18;;;;;;;14.44;81.98;102001.81;5276490;28;20406;-63
2022/05/14 08:08:59;;;;;;;22.95;9.70;;;;;;;14.56;80.60;102000.91;5277904;28;20055;-64
2022/05/14 08:11:31;;;;;;;25.65;10.07;;;;;;;14.71;79.80;102004.31;5275090;28;20447;-64
2022/05/14 08:14:02;;;;;;;26.98;10.05;;;;;;;14.79;80.19;101996.50;5275063;28;20052;-64
2022/05/14 08:16:33;;;;;;;21.45;10.65;;;;;;;14.81;79.55;101993.72;5276810;28;20036;-64
2022/05/14 08:19:04;;;;;;;20.23;11.23;;;;;;;14.89;78.99;101994.81;5274350;28;20060;-64
2022/05/14 08:24:34;;;;;;;19.45;10.52;;;;;;;15.13;79.27;102004.69;5269822;28;20054;-64
2022/05/14 08:27:08;;;;;;;22.80;10.93;;;;;;;15.09;78.60;101993.31;5276872;28;20533;-64
2022/05/14 08:29:40;;;;;;;22.50;9.40;;;;;;;15.33;78.77;101994.19;5264518;28;20398;-64
2022/05/14 08:32:12;;;;;;;20.83;10.07;;;;;;;15.44;77.68;101995.06;5275380;28;20437;-63
2022/05/14 08:34:43;;;;;;;17.92;8.98;;;;;;;15.43;76.52;101995.19;5275139;28;20020;-64
2022/05/14 08:37:14;;;;;;;25.98;10.65;;;;;;;15.49;75.97;101990.19;5277523;28;20040;-64
2022/05/14 08:39:45;;;;;;;20.52;10.52;;;;;;;15.66;76.79;101993.34;5272147;28;20028;-63
2022/05/14 08:42:18;;;;;;;19.73;10.35;;;;;;;15.83;73.95;102003.66;5276117;28;20029;-64
2022/05/14 08:44:50;;;;;;;21.80;10.13;;;;;;;15.97;74.57;102001.69;5271531;28;20331;-64
2022/05/14 08:47:29;;;;;;;20.40;9.52;;;;;;;16.02;73.85;101994.09;5273484;28;20079;-64
2022/05/14 08:50:03;;;;;;;19.52;9.30;;;;;;;16.29;74.74;101996.38;5267447;28;20475;-64
2022/05/14 08:52:36;;;;;;;21.33;9.75;;;;;;;16.35;73.51;102000.38;5274696;28;20129;-64
2022/05/14 08:55:12;;;;;;;20.38;9.73;;;;;;;16.24;71.22;101999.44;5275088;28;20032;-64
2022/05/14 08:58:02;;;;;;;23.50;10.00;;;;;;;16.32;71.77;101995.25;5275727;28;20076;-64
2022/05/14 09:00:34;;;;;;;21.35;9.13;;;;;;;16.41;70.68;101992.63;5268360;28;20032;-64
2022/05/14 09:03:05;;;;;;;21.42;9.40;;;;;;;16.54;70.19;101997.88;5273253;28;20494;-64
2022/05/14 09:05:37;;;;;;;23.08;10.18;;;;;;;16.50;70.63;101985.66;5274245;28;20115;-64
2022/05/14 09:08:08;;;;;;;19.98;8.70;;;;;;;16.75;71.16;101997.91;5275919;28;20039;-64
2022/05/14 09:10:42;;;;;;;16.92;8.00;;;;;;;16.99;70.75;101997.72;5275962;28;20522;-64
2022/05/14 09:13:20;;;;;;;16.92;9.40;;;;;;;17.05;69.57;101997.19;5275429;28;20173;-64
2022/05/14 09:16:02;;;;;;;24.08;9.23;;;;;;;17.05;71.02;101997.19;5271168;28;20020;-64
2022/05/14 09:18:45;;;;;;;15.57;8.90;;;;;;;17.19;67.70;102003.22;5276005;28;20048;-65
2022/05/14 09:21:30;;;;;;;17.58;8.30;;;;;;;17.50;67.53;101996.00;5275899;28;20115;-64
2022/05/14 09:24:16;;;;;;;19.33;9.20;;;;;;;17.36;66.64;102002.63;5269555;28;20486;-64
2022/05/14 09:26:47;;;;;;;20.38;8.85;;;;;;;17.45;67.05;102003.66;5275827;28;20032;-64
2022/05/14 09:29:39;;;;;;;17.90;8.57;;;;;;;17.82;67.10;101990.47;5275982;28;20036;-64
2022/05/14 09:32:16;;;;;;;15.85;7.25;;;;;;;17.87;66.77;101989.22;5265243;28;20036;-64
2022/05/14 09:34:48;;;;;;;16.55;7.97;;;;;;;17.96;65.54;101988.41;5274768;28;20047;-64
2022/05/14 09:37:23;;;;;;;17.42;8.10;;;;;;;18.09;64.53;101985.47;5275323;28;20021;-64
2022/05/14 09:40:03;;;;;;;18.92;9.07;;;;;;;18.00;64.13;101995.25;5275741;28;20028;-65
2022/05/14 09:42:45;;;;;;;16.20;8.07;;;;;;;17.98;65.75;101989.97;5272484;28;20060;-64
2022/05/14 09:45:32;;;;;;;18.90;8.48;;;;;;;18.07;66.07;101973.94;5273121;28;20453;-64
2022/05/14 09:48:14;;;;;;;15.55;7.40;;;;;;;18.07;63.62;101982.06;5275651;28;20040;-64
2022/05/14 09:50:51;;;;;;;19.52;7.30;;;;;;;18.12;61.97;101982.47;5273012;28;20495;-64
2022/05/14 09:53:35;;;;;;;15.68;7.43;;;;;;;18.25;63.49;101987.63;5272769;28;20099;-64
2022/05/14 09:56:06;;;;;;;17.55;7.63;;;;;;;18.22;61.26;101980.66;5275416;28;20148;-64
2022/05/14 09:58:42;;;;;;;14.73;7.07;;;;;;;18.21;61.27;101984.34;5275344;28;20033;-65
2022/05/14 10:01:22;;;;;;;18.48;6.85;;;;;;;18.12;60.66;101977.94;5276280;28;20303;-64
2022/05/14 10:04:14;;;;;;;18.08;6.72;;;;;;;18.15;60.52;101974.09;5276692;28;20502;-64
2022/05/14 10:07:18;;;;;;;16.33;6.57;;;;;;;18.31;60.95;101981.66;5278958;28;20036;-64
2022/05/14 10:10:08;;;;;;;17.55;7.05;;;;;;;18.26;59.01;101982.09;5275786;28;20055;-64
2022/05/14 10:12:45;;;;;;;17.42;6.72;;;;;;;18.40;60.82;101992.47;5275478;28;20390;-64
2022/05/14 10:15:48;;;;;;;17.33;7.18;;;;;;;18.58;60.42;101989.06;5279792;28;20028;-64
2022/05/14 10:18:19;;;;;;;13.02;7.05;;;;;;;18.68;59.36;101987.22;5276996;28;20052;-64
2022/05/14 10:21:03;;;;;;;13.50;6.70;;;;;;;18.72;59.97;101988.66;5278117;28;20032;-64
2022/05/14 10:27:25;;;;;;;19.05;7.65;;;;;;;18.78;59.28;101981.81;5277534;28;20422;-64
2022/05/14 10:30:51;;;;;;;17.42;7.28;;;;;;;18.84;59.47;101981.28;5267486;28;20437;-64
2022/05/14 10:33:27;;;;;;;15.07;6.72;;;;;;;18.82;58.65;101985.13;5244006;28;20040;-64
2022/05/14 10:36:19;;;;;;;13.00;6.15;;;;;;;18.89;56.34;101981.69;5272273;28;20408;-64
2022/05/14 10:39:01;;;;;;;16.80;6.05;;;;;;;18.72;52.97;101975.13;5278100;28;20036;-64
2022/05/14 10:41:42;;;;;;;15.82;5.80;;;;;;;18.78;53.28;101979.97;5275900;28;20439;-64
2022/05/14 10:44:30;;;;;;;13.02;6.00;;;;;;;18.80;53.95;101980.69;5279171;28;20032;-64
2022/05/14 10:47:04;;;;;;;11.60;5.07;;;;;;;18.69;54.44;101979.97;5270581;28;20036;-64
2022/05/14 10:49:42;;;;;;;13.45;5.75;;;;;;;18.92;54.18;101977.84;5275813;28;20041;-64
2022/05/14 10:52:16;;;;;;;11.80;5.30;;;;;;;19.26;55.53;101988.19;5278659;28;20064;-64
2022/05/14 10:54:48;;;;;;;16.83;6.13;;;;;;;19.21;53.70;101988.59;5277977;28;20029;-64
2022/05/14 10:57:26;;;;;;;14.48;5.55;;;;;;;19.52;53.99;101981.13;5279060;28;20046;-64
2022/05/14 11:00:11;;;;;;;15.20;6.43;;;;;;;19.71;50.67;101988.31;5271140;28;20063;-64
2022/05/14 11:03:00;;;;;;;13.93;5.72;;;;;;;19.75;52.36;101980.75;5270732;28;20079;-64
2022/05/14 11:05:49;;;;;;;16.33;6.63;;;;;;;19.77;51.50;101976.03;5274693;28;20024;-64
2022/05/14 11:08:29;;;;;;;13.02;4.97;;;;;;;19.98;52.31;101986.59;5271020;28;20112;-64
2022/05/14 11:11:02;;;;;;;14.73;5.65;;;;;;;20.18;52.42;101985.50;5274987;28;20032;-64
2022/05/14 11:13:34;;;;;;;14.65;6.35;;;;;;;20.10;49.05;101985.41;5278420;28;20136;-64
2022/05/14 11:16:10;;;;;;;13.57;5.75;;;;;;;20.11;50.32;101984.38;5278298;28;20032;-64
2022/05/14 11:18:44;;;;;;;13.93;5.88;;;;;;;20.20;49.67;101977.22;5278099;28;20068;-64
2022/05/14 11:21:18;;;;;;;12.80;5.28;;;;;;;20.36;52.53;101985.53;5271165;28;20090;-64
2022/05/14 11:23:59;;;;;;;13.27;6.95;;;;;;;20.31;50.92;101981.59;5278923;28;20568;-64
2022/05/14 11:26:30;;;;;;;13.48;7.00;;;;;;;20.38;51.63;101988.06;5276801;28;20032;-65
2022/05/14 11:29:12;;;;;;;14.77;6.50;;;;;;;20.36;51.28;101987.38;5278672;28;20546;-64
2022/05/14 11:32:02;;;;;;;15.98;6.82;;;;;;;20.30;50.65;101979.84;5277226;28;20032;-65
2022/05/14 11:34:34;;;;;;;14.15;6.50;;;;;;;20.08;50.70;101987.44;5275394;28;20025;-64
2022/05/14 11:37:06;;;;;;;17.13;6.93;;;;;;;20.22;49.17;101983.34;5278177;28;20040;-64
2022/05/14 11:39:38;;;;;;;13.75;6.30;;;;;;;20.13;49.79;101976.97;5278204;28;20025;-64
2022/05/14 11:42:27;;;;;;;15.93;7.20;;;;;;;20.21;48.14;101975.34;5271700;28;20406;-64
2022/05/14 11:45:13;;;;;;;13.45;6.70;;;;;;;20.34;50.88;101981.25;5266335;28;20471;-64
2022/05/14 11:48:20;;;;;;;14.43;6.90;;;;;;;20.35;47.34;101986.53;5275516;28;20111;-64
2022/05/14 11:51:14;;;;;;;14.23;6.80;;;;;;;20.26;49.01;101973.03;5274465;28;20387;-64
2022/05/14 11:54:04;;;;;;;12.02;5.93;;;;;;;20.38;49.94;101966.38;5268132;28;20025;-64
2022/05/14 11:56:53;;;;;;;16.40;6.70;;;;;;;20.40;48.35;101977.91;5274050;28;20403;-64
2022/05/14 12:00:06;;;;;;;14.40;6.72;;;;;;;20.45;48.99;101988.31;5277392;28;20505;-64
2022/05/14 12:02:46;;;;;;;15.48;6.78;;;;;;;20.28;45.57;101982.72;5275705;28;20710;-64
2022/05/14 12:05:22;;;;;;;13.63;6.63;;;;;;;20.33;46.48;101985.00;5273453;28;20032;-64
2022/05/14 12:08:06;;;;;;;12.93;6.43;;;;;;;20.46;46.64;101988.16;5275763;28;20035;-64
2022/05/14 12:11:00;;;;;;;11.05;6.90;;;;;;;20.47;44.81;101980.88;5275428;28;20033;-64
2022/05/14 12:13:48;;;;;;;13.10;5.60;;;;;;;20.50;44.56;101981.44;5261502;28;20040;-64